There are multiple Weather-warnings   Click here for more information


Meteo18 Weather Cam more information Meteo18 Weather Cam


warning for Thunderstorms more information blitzortung!


Rain radar more information rain snow radar


Visit our other weather sites:

Template documentation
and downloads

And another site



Weather Underground History page Text

Daily Summary for March 9, 2016 Units:  Metric    English   Both
« Previous Day
Next Day »
Daily Weekly Monthly Yearly Custom
  High: Low: Average:
Temperature: 9.8 °C -0.6 °C 3.7 °C
Dew Point: 6.9 °C -1.3 °C 2.4 °C
Humidity: 97 % 81 % 91 %
Wind Speed: 12.9 km/h 0.0 km/h 2.1 km/h
Wind Gust: 20.9 km/h - -
Wind:- - WSW
Pressure: 1016.1 hPa 998.9 hPa -
Precipitation: 9.9 mm    
Historical Graphs
 
 
Tabular Data for March 9, 2016
Time Temperature Dew Point Pressure Wind Wind Speed Wind Gust Humidity Rainfall Rate (Hourly)
00:02 -0.6 °C -1.3 °C 1016.1 hPa Calm     95 % 0.0 mm
00:07 -0.5 °C -1.2 °C 1016.1 hPa Calm     95 % 0.0 mm
00:12 -0.3 °C -0.9 °C 1015.8 hPa Calm     96 % 0.0 mm
00:17 -0.2 °C -0.9 °C 1015.8 hPa Calm     95 % 0.0 mm
00:22 -0.1 °C -0.8 °C 1015.5 hPa Calm     95 % 0.0 mm
00:27 0.1 °C -0.6 °C 1015.5 hPa Calm     95 % 0.0 mm
00:32 0.2 °C -0.5 °C 1015.5 hPa Calm     95 % 0.0 mm
00:42 0.4 °C -0.5 °C 1015.5 hPa Calm   1.6 km/h 94 % 0.0 mm
00:47 0.5 °C -0.4 °C 1015.5 hPa Calm   1.6 km/h 94 % 0.0 mm
00:52 0.6 °C -0.3 °C 1015.5 hPa Calm   1.6 km/h 94 % 0.0 mm
00:57 0.7 °C -0.2 °C 1015.1 hPa Calm     94 % 0.0 mm
01:02 0.8 °C -0.2 °C 1015.1 hPa Calm   1.6 km/h 93 % 0.0 mm
01:07 0.9 °C -0.1 °C 1014.8 hPa Calm   1.6 km/h 93 % 0.0 mm
01:12 0.9 °C -0.1 °C 1014.8 hPa Calm   1.6 km/h 93 % 0.0 mm
01:17 1.0 °C 0.0 °C 1014.8 hPa West 1.6 km/h 1.6 km/h 93 % 0.0 mm
01:22 1.1 °C -0.1 °C 1014.4 hPa Calm   1.6 km/h 92 % 0.0 mm
01:27 1.2 °C 0.0 °C 1014.4 hPa Calm   1.6 km/h 92 % 0.0 mm
01:32 1.3 °C 0.1 °C 1014.4 hPa Calm   1.6 km/h 92 % 0.0 mm
01:37 1.3 °C 0.1 °C 1014.4 hPa Calm   1.6 km/h 92 % 0.0 mm
01:42 1.4 °C 0.2 °C 1014.4 hPa Calm   1.6 km/h 92 % 0.0 mm
01:47 1.4 °C 0.1 °C 1014.4 hPa Calm   1.6 km/h 91 % 0.0 mm
01:52 1.4 °C 0.1 °C 1014.4 hPa Calm   1.6 km/h 91 % 0.0 mm
01:57 1.4 °C 0.1 °C 1014.1 hPa WSW 1.6 km/h 1.6 km/h 91 % 0.0 mm
02:02 1.5 °C 0.2 °C 1014.1 hPa Calm   1.6 km/h 91 % 0.0 mm
02:07 1.6 °C 0.3 °C 1014.1 hPa Calm   1.6 km/h 91 % 0.0 mm
02:12 1.6 °C 0.1 °C 1013.8 hPa Calm   1.6 km/h 90 % 0.0 mm
02:17 1.7 °C 0.2 °C 1013.8 hPa Calm   1.6 km/h 90 % 0.0 mm
02:22 1.7 °C 0.1 °C 1013.8 hPa Calm   1.6 km/h 89 % 0.0 mm
02:27 1.8 °C 0.3 °C 1013.4 hPa Calm   1.6 km/h 90 % 0.0 mm
02:32 1.8 °C 0.3 °C 1013.4 hPa Calm   1.6 km/h 90 % 0.0 mm
02:37 1.8 °C 0.3 °C 1013.1 hPa Calm   1.6 km/h 90 % 0.0 mm
02:42 1.8 °C 0.3 °C 1013.1 hPa Calm   1.6 km/h 90 % 0.0 mm
02:47 1.8 °C 0.5 °C 1012.8 hPa Calm   1.6 km/h 91 % 0.0 mm
02:52 1.8 °C 0.5 °C 1012.8 hPa Calm   1.6 km/h 91 % 0.0 mm
02:57 1.9 °C 0.4 °C 1012.8 hPa Calm   1.6 km/h 90 % 0.0 mm
03:02 1.9 °C 0.4 °C 1012.8 hPa SSW 1.6 km/h 1.6 km/h 90 % 0.0 mm
03:07 1.9 °C 0.3 °C 1012.4 hPa SW 1.6 km/h 3.2 km/h 89 % 0.0 mm
03:12 2.0 °C 0.2 °C 1012.4 hPa Calm   3.2 km/h 88 % 0.0 mm
03:17 2.1 °C 0.5 °C 1012.4 hPa Calm   3.2 km/h 89 % 0.0 mm
03:22 2.1 °C 0.3 °C 1012.1 hPa SW 1.6 km/h 4.8 km/h 88 % 0.0 mm
03:27 2.0 °C 0.4 °C 1012.1 hPa Calm   3.2 km/h 89 % 0.0 mm
03:32 1.9 °C 0.3 °C 1011.7 hPa Calm   1.6 km/h 89 % 0.0 mm
03:37 1.9 °C 0.3 °C 1011.7 hPa Calm   1.6 km/h 89 % 0.0 mm
03:42 1.9 °C 0.3 °C 1011.4 hPa Calm     89 % 0.0 mm
03:47 1.8 °C 0.0 °C 1011.4 hPa Calm     88 % 0.0 mm
03:52 1.7 °C -0.1 °C 1011.4 hPa Calm     88 % 0.0 mm
03:57 1.7 °C 0.1 °C 1011.1 hPa Calm     89 % 0.0 mm
04:02 1.7 °C 0.1 °C 1011.1 hPa Calm     89 % 0.0 mm
04:07 1.7 °C -0.1 °C 1011.1 hPa Calm     88 % 0.0 mm
04:12 1.7 °C -0.1 °C 1010.7 hPa Calm     88 % 0.0 mm
04:17 1.6 °C -0.2 °C 1010.7 hPa Calm     88 % 0.0 mm
04:22 1.4 °C -0.4 °C 1010.4 hPa Calm     88 % 0.0 mm
04:27 1.2 °C -0.4 °C 1010.4 hPa Calm     89 % 0.0 mm
04:32 1.0 °C -0.5 °C 1010.0 hPa Calm     90 % 0.0 mm
04:37 0.9 °C -0.6 °C 1010.0 hPa Calm     90 % 0.0 mm
04:42 0.9 °C -0.4 °C 1009.7 hPa Calm     91 % 0.0 mm
04:47 1.1 °C -0.2 °C 1009.7 hPa Calm     91 % 0.0 mm
04:52 1.2 °C -0.3 °C 1009.7 hPa West 1.6 km/h 1.6 km/h 90 % 0.0 mm
04:57 1.3 °C -0.3 °C 1009.4 hPa Calm   1.6 km/h 89 % 0.0 mm
05:02 1.4 °C -0.2 °C 1009.4 hPa Calm   4.8 km/h 89 % 0.0 mm
05:07 1.4 °C -0.2 °C 1009.4 hPa Calm   4.8 km/h 89 % 0.0 mm
05:12 1.4 °C -0.2 °C 1009.4 hPa Calm   4.8 km/h 89 % 0.0 mm
05:17 1.3 °C -0.3 °C 1009.0 hPa Calm   4.8 km/h 89 % 0.0 mm
05:22 1.3 °C -0.3 °C 1009.0 hPa Calm   1.6 km/h 89 % 0.0 mm
05:27 1.3 °C -0.3 °C 1008.7 hPa Calm   3.2 km/h 89 % 0.0 mm
05:32 1.3 °C -0.3 °C 1008.7 hPa Calm   4.8 km/h 89 % 0.0 mm
05:37 1.4 °C -0.2 °C 1008.4 hPa Calm   4.8 km/h 89 % 0.0 mm
05:42 1.4 °C -0.2 °C 1008.4 hPa WSW 1.6 km/h 4.8 km/h 89 % 0.0 mm
05:47 1.4 °C -0.2 °C 1008.4 hPa WSW 1.6 km/h 4.8 km/h 89 % 0.0 mm
05:52 1.4 °C -0.2 °C 1008.0 hPa Calm   6.4 km/h 89 % 0.0 mm
05:57 1.5 °C -0.1 °C 1007.7 hPa West 1.6 km/h 6.4 km/h 89 % 0.0 mm
06:02 1.6 °C 0.0 °C 1007.7 hPa West 1.6 km/h 6.4 km/h 89 % 0.0 mm
06:12 1.7 °C -0.1 °C 1007.3 hPa SW 3.2 km/h 6.4 km/h 88 % 0.0 mm
06:17 1.7 °C -0.1 °C 1007.3 hPa WSW 6.4 km/h 6.4 km/h 88 % 0.0 mm
06:22 1.8 °C 0.0 °C 1007.3 hPa Calm   6.4 km/h 88 % 0.0 mm
06:32 1.8 °C 0.0 °C 1007.0 hPa Calm   6.4 km/h 88 % 0.0 mm
06:37 1.8 °C 0.0 °C 1006.7 hPa Calm   6.4 km/h 88 % 0.0 mm
06:42 1.9 °C 0.1 °C 1006.7 hPa Calm   6.4 km/h 88 % 0.0 mm
06:47 1.9 °C 0.1 °C 1006.7 hPa Calm   9.7 km/h 88 % 0.0 mm
06:52 1.9 °C 0.1 °C 1006.7 hPa SW 4.8 km/h 9.7 km/h 88 % 0.0 mm
06:57 2.1 °C 0.3 °C 1006.7 hPa WSW 1.6 km/h 9.7 km/h 88 % 0.0 mm
07:02 2.1 °C 0.3 °C 1006.3 hPa West 3.2 km/h 11.3 km/h 88 % 0.0 mm
07:12 2.3 °C 0.5 °C 1006.3 hPa WSW 1.6 km/h 6.4 km/h 88 % 0.0 mm
07:17 2.4 °C 0.6 °C 1006.3 hPa West 3.2 km/h 9.7 km/h 88 % 0.0 mm
07:22 2.4 °C 0.5 °C 1006.0 hPa Calm   9.7 km/h 87 % 0.0 mm
07:32 2.5 °C 0.6 °C 1005.6 hPa Calm   9.7 km/h 87 % 0.0 mm
07:37 2.5 °C 0.6 °C 1005.6 hPa WSW 4.8 km/h 9.7 km/h 87 % 0.0 mm
07:42 2.5 °C 0.4 °C 1005.3 hPa WSW 4.8 km/h 11.3 km/h 86 % 0.0 mm
07:47 2.5 °C 0.6 °C 1005.3 hPa Calm   11.3 km/h 87 % 0.0 mm
07:52 2.5 °C 0.4 °C 1005.0 hPa Calm   11.3 km/h 86 % 0.0 mm
07:57 2.5 °C 0.4 °C 1004.6 hPa Calm   8.0 km/h 86 % 0.0 mm
08:02 2.6 °C 0.5 °C 1004.3 hPa WSW 1.6 km/h 8.0 km/h 86 % 0.0 mm
08:07 2.7 °C 0.4 °C 1004.3 hPa WSW 1.6 km/h 9.7 km/h 85 % 0.0 mm
08:12 2.7 °C 0.4 °C 1004.3 hPa SSW 1.6 km/h 11.3 km/h 85 % 0.0 mm
08:17 2.8 °C 0.7 °C 1004.3 hPa Calm   12.9 km/h 86 % 0.0 mm
08:22 2.8 °C 0.7 °C 1004.3 hPa Calm   12.9 km/h 86 % 0.0 mm
08:27 2.8 °C 0.5 °C 1003.9 hPa Calm   9.7 km/h 85 % 0.0 mm
08:32 2.9 °C 0.8 °C 1003.9 hPa WSW 3.2 km/h 9.7 km/h 86 % 0.0 mm
08:37 2.9 °C 1.0 °C 1003.9 hPa West 3.2 km/h 12.9 km/h 87 % 0.0 mm
08:42 2.9 °C 0.8 °C 1003.6 hPa WSW 3.2 km/h 12.9 km/h 86 % 0.0 mm
08:47 2.9 °C 1.0 °C 1003.6 hPa WSW 4.8 km/h 12.9 km/h 87 % 0.0 mm
08:52 2.9 °C 1.0 °C 1003.3 hPa SW 3.2 km/h 14.5 km/h 87 % 0.0 mm
08:57 2.9 °C 1.1 °C 1003.3 hPa WSW 3.2 km/h 14.5 km/h 88 % 0.0 mm
09:02 2.9 °C 1.1 °C 1002.9 hPa West 3.2 km/h 14.5 km/h 88 % 0.3 mm
09:07 2.8 °C 1.2 °C 1002.9 hPa WSW 1.6 km/h 12.9 km/h 89 % 0.5 mm
09:12 2.7 °C 1.2 °C 1002.6 hPa Calm   12.9 km/h 90 % 0.5 mm
09:17 2.7 °C 1.4 °C 1002.6 hPa West 4.8 km/h 12.9 km/h 91 % 0.5 mm
09:22 2.6 °C 1.3 °C 1002.6 hPa WSW 3.2 km/h 8.0 km/h 91 % 0.8 mm
09:27 2.6 °C 1.4 °C 1002.3 hPa WSW 4.8 km/h 8.0 km/h 92 % 1.0 mm
09:32 2.6 °C 1.4 °C 1002.3 hPa West 3.2 km/h 9.7 km/h 92 % 1.3 mm
09:37 2.5 °C 1.5 °C 1002.3 hPa SW 1.6 km/h 9.7 km/h 93 % 1.5 mm
09:42 2.6 °C 1.6 °C 1001.9 hPa Calm   11.3 km/h 93 % 1.5 mm
09:47 2.6 °C 1.6 °C 1001.9 hPa West 8.0 km/h 12.9 km/h 93 % 1.8 mm
09:52 2.6 °C 1.6 °C 1001.6 hPa West 1.6 km/h 12.9 km/h 93 % 2.0 mm
09:57 2.6 °C 1.6 °C 1001.6 hPa West 1.6 km/h 9.7 km/h 93 % 2.3 mm
10:02 2.6 °C 1.6 °C 1001.2 hPa Calm   9.7 km/h 93 % 2.3 mm
10:07 2.6 °C 1.6 °C 1001.2 hPa WSW 3.2 km/h 9.7 km/h 93 % 2.0 mm
10:12 2.6 °C 1.6 °C 1001.2 hPa West 3.2 km/h 11.3 km/h 93 % 1.8 mm
10:17 2.7 °C 1.8 °C 1001.2 hPa WNW 3.2 km/h 16.1 km/h 94 % 1.5 mm
10:22 2.7 °C 1.8 °C 1000.9 hPa WSW 1.6 km/h 16.1 km/h 94 % 2.0 mm
10:27 2.7 °C 1.7 °C 1000.9 hPa West 3.2 km/h 16.1 km/h 93 % 1.8 mm
10:32 2.7 °C 1.8 °C 1000.9 hPa WSW 3.2 km/h 9.7 km/h 94 % 1.5 mm
10:37 2.7 °C 1.8 °C 1000.9 hPa East 1.6 km/h 9.7 km/h 94 % 1.5 mm
10:42 2.6 °C 1.7 °C 1000.6 hPa WNW 3.2 km/h 9.7 km/h 94 % 1.5 mm
10:47 2.6 °C 1.7 °C 1000.6 hPa West 3.2 km/h 9.7 km/h 94 % 1.5 mm
10:52 2.6 °C 1.7 °C 1000.6 hPa West 3.2 km/h 9.7 km/h 94 % 2.0 mm
10:57 2.6 °C 1.9 °C 1000.6 hPa WNW 3.2 km/h 11.3 km/h 95 % 2.0 mm
11:02 2.7 °C 2.0 °C 1000.6 hPa Calm   12.9 km/h 95 % 2.3 mm
11:07 2.6 °C 1.7 °C 1000.6 hPa WSW 1.6 km/h 12.9 km/h 94 % 2.8 mm
11:12 2.6 °C 1.7 °C 1000.6 hPa Calm   12.9 km/h 94 % 3.0 mm
11:17 2.6 °C 1.7 °C 1000.6 hPa SW 1.6 km/h 11.3 km/h 94 % 3.3 mm
11:22 2.6 °C 1.7 °C 1000.6 hPa Calm   11.3 km/h 94 % 4.1 mm
11:27 2.6 °C 1.9 °C 1000.2 hPa West 1.6 km/h 9.7 km/h 95 % 4.3 mm
11:32 2.6 °C 1.9 °C 1000.2 hPa West 1.6 km/h 9.7 km/h 95 % 4.8 mm
11:37 2.7 °C 2.0 °C 999.9 hPa SW 4.8 km/h 9.7 km/h 95 % 4.6 mm
11:42 2.9 °C 2.2 °C 999.9 hPa Calm   9.7 km/h 95 % 4.6 mm
11:47 3.1 °C 2.4 °C 999.9 hPa WNW 1.6 km/h 9.7 km/h 95 % 4.3 mm
11:52 3.1 °C 2.4 °C 999.5 hPa Calm   9.7 km/h 95 % 4.3 mm
11:57 3.2 °C 2.5 °C 999.5 hPa West 3.2 km/h 8.0 km/h 95 % 4.1 mm
12:02 3.3 °C 2.6 °C 999.5 hPa West 8.0 km/h 9.7 km/h 95 % 3.6 mm
12:07 3.3 °C 2.6 °C 999.5 hPa West 3.2 km/h 12.9 km/h 95 % 3.0 mm
12:12 3.4 °C 2.7 °C 999.2 hPa WSW 3.2 km/h 12.9 km/h 95 % 2.5 mm
12:22 3.6 °C 2.9 °C 999.5 hPa West 4.8 km/h 16.1 km/h 95 % 1.5 mm
12:27 3.7 °C 3.0 °C 999.5 hPa West 1.6 km/h 16.1 km/h 95 % 1.0 mm
12:32 3.8 °C 3.1 °C 999.5 hPa West 8.0 km/h 12.9 km/h 95 % 0.5 mm
12:42 3.9 °C 3.2 °C 999.2 hPa West 3.2 km/h 12.9 km/h 95 % 0.5 mm
12:47 4.0 °C 3.3 °C 999.2 hPa West 8.0 km/h 11.3 km/h 95 % 0.5 mm
12:52 4.1 °C 3.4 °C 999.2 hPa SW 4.8 km/h 19.3 km/h 95 % 0.5 mm
12:57 4.2 °C 3.5 °C 999.2 hPa West 6.4 km/h 19.3 km/h 95 % 0.3 mm
13:02 4.3 °C 3.6 °C 999.2 hPa WSW 6.4 km/h 19.3 km/h 95 % 0.3 mm
13:07 4.4 °C 3.8 °C 999.2 hPa WSW 1.6 km/h 11.3 km/h 96 % 0.3 mm
13:12 4.4 °C 3.8 °C 999.2 hPa East 1.6 km/h 11.3 km/h 96 % 0.3 mm
13:17 4.5 °C 3.9 °C 999.2 hPa SW 4.8 km/h 11.3 km/h 96 % 0.3 mm
13:22 4.6 °C 4.0 °C 999.2 hPa West 3.2 km/h 12.9 km/h 96 % 0.3 mm
13:27 4.8 °C 4.2 °C 998.9 hPa ESE 1.6 km/h 12.9 km/h 96 % 0.3 mm
13:32 5.0 °C 4.4 °C 998.9 hPa WNW 6.4 km/h 16.1 km/h 96 % 0.3 mm
13:37 5.2 °C 4.6 °C 998.9 hPa WSW 1.6 km/h 16.1 km/h 96 % 0.3 mm
13:42 5.4 °C 4.8 °C 999.2 hPa WSW 1.6 km/h 12.9 km/h 96 % 0.0 mm
13:47 5.6 °C 5.0 °C 999.2 hPa SW 4.8 km/h 12.9 km/h 96 % 0.0 mm
13:52 5.8 °C 5.2 °C 999.2 hPa WSW 3.2 km/h 9.7 km/h 96 % 0.0 mm
13:57 6.1 °C 5.5 °C 999.2 hPa SE 3.2 km/h 9.7 km/h 96 % 0.0 mm
14:02 6.5 °C 6.1 °C 999.2 hPa WSW 1.6 km/h 9.7 km/h 97 % 0.0 mm
14:07 6.9 °C 6.3 °C 998.9 hPa SW 1.6 km/h 8.0 km/h 96 % 0.0 mm
14:12 7.2 °C 6.5 °C 998.9 hPa WNW 3.2 km/h 11.3 km/h 95 % 0.0 mm
14:17 7.3 °C 6.2 °C 998.9 hPa Calm   11.3 km/h 93 % 0.0 mm
14:22 7.4 °C 6.3 °C 998.9 hPa Calm   11.3 km/h 93 % 0.0 mm
14:27 7.3 °C 6.1 °C 998.9 hPa SW 8.0 km/h 9.7 km/h 92 % 0.0 mm
14:32 7.0 °C 5.6 °C 999.2 hPa WSW 3.2 km/h 9.7 km/h 91 % 0.3 mm
14:37 6.5 °C 5.0 °C 999.5 hPa WSW 4.8 km/h 19.3 km/h 90 % 0.5 mm
14:42 6.4 °C 5.0 °C 999.2 hPa Calm   19.3 km/h 91 % 0.5 mm
14:47 6.6 °C 5.4 °C 999.2 hPa Calm   19.3 km/h 92 % 0.5 mm
14:52 7.0 °C 5.8 °C 999.2 hPa SW 3.2 km/h 16.1 km/h 92 % 0.5 mm
14:57 7.6 °C 6.4 °C 999.2 hPa SW 4.8 km/h 6.4 km/h 92 % 0.5 mm
15:02 8.1 °C 6.4 °C 999.5 hPa WSW 6.4 km/h 6.4 km/h 89 % 0.5 mm
15:12 7.9 °C 5.9 °C 999.5 hPa SW 8.0 km/h 9.7 km/h 87 % 0.5 mm
15:17 7.9 °C 6.0 °C 999.5 hPa WSW 8.0 km/h 12.9 km/h 88 % 0.5 mm
15:22 7.9 °C 5.7 °C 999.2 hPa West 6.4 km/h 16.1 km/h 86 % 0.5 mm
15:27 7.9 °C 5.7 °C 999.2 hPa SW 9.7 km/h 16.1 km/h 86 % 0.5 mm
15:32 7.8 °C 5.6 °C 999.5 hPa SW 4.8 km/h 16.1 km/h 86 % 0.5 mm
15:42 8.1 °C 5.7 °C 999.5 hPa WSW 3.2 km/h 12.9 km/h 85 % 0.0 mm
15:47 8.2 °C 6.3 °C 999.5 hPa WSW 4.8 km/h 11.3 km/h 88 % 0.0 mm
15:52 8.3 °C 6.3 °C 999.2 hPa WSW 9.7 km/h 11.3 km/h 87 % 0.0 mm
15:57 8.1 °C 5.9 °C 999.2 hPa SW 6.4 km/h 11.3 km/h 86 % 0.0 mm
16:02 8.1 °C 5.7 °C 999.5 hPa SSE 6.4 km/h 12.9 km/h 85 % 0.0 mm
16:07 8.3 °C 6.1 °C 999.2 hPa SW 4.8 km/h 12.9 km/h 86 % 0.0 mm
16:12 8.7 °C 6.7 °C 999.2 hPa WSW 1.6 km/h 11.3 km/h 87 % 0.0 mm
16:22 9.8 °C 6.9 °C 999.2 hPa WSW 9.7 km/h 16.1 km/h 82 % 0.0 mm
16:32 9.3 °C 6.2 °C 999.5 hPa SW 12.9 km/h 12.9 km/h 81 % 0.0 mm
16:37 8.9 °C 5.8 °C 999.5 hPa SW 4.8 km/h 16.1 km/h 81 % 0.0 mm
16:42 8.6 °C 5.5 °C 999.5 hPa SSW 3.2 km/h 16.1 km/h 81 % 0.0 mm
16:47 8.4 °C 5.5 °C 999.5 hPa WSW 11.3 km/h 20.9 km/h 82 % 0.3 mm
16:57 7.8 °C 5.1 °C 999.9 hPa SW 3.2 km/h 14.5 km/h 83 % 0.3 mm
17:02 7.6 °C 5.1 °C 999.9 hPa SW 3.2 km/h 12.9 km/h 84 % 0.3 mm
17:07 7.3 °C 4.9 °C 999.9 hPa SW 6.4 km/h 11.3 km/h 85 % 0.3 mm
17:12 7.1 °C 4.9 °C 999.9 hPa SW 1.6 km/h 9.7 km/h 86 % 0.3 mm
17:17 7.1 °C 4.9 °C 1000.2 hPa SW 3.2 km/h 9.7 km/h 86 % 0.3 mm
17:22 7.1 °C 5.1 °C 999.9 hPa SSE 9.7 km/h 11.3 km/h 87 % 0.3 mm
17:27 7.3 °C 5.3 °C 1000.2 hPa Calm   11.3 km/h 87 % 0.3 mm
17:32 7.1 °C 4.9 °C 1000.2 hPa SSW 3.2 km/h 11.3 km/h 86 % 0.3 mm
17:37 6.8 °C 4.6 °C 1000.2 hPa WSW 3.2 km/h 9.7 km/h 86 % 0.3 mm
17:47 6.5 °C 4.7 °C 1000.6 hPa SSW 4.8 km/h 8.0 km/h 88 % 0.0 mm
17:52 6.2 °C 4.4 °C 1000.6 hPa SW 4.8 km/h 11.3 km/h 88 % 0.0 mm
17:57 5.9 °C 4.2 °C 1000.6 hPa Calm   11.3 km/h 89 % 0.3 mm
18:02 5.8 °C 4.3 °C 1000.6 hPa Calm   11.3 km/h 90 % 0.5 mm
18:07 5.8 °C 4.3 °C 1000.6 hPa Calm   8.0 km/h 90 % 0.5 mm
18:12 5.7 °C 4.2 °C 1000.6 hPa Calm   3.2 km/h 90 % 0.5 mm
18:17 5.6 °C 4.1 °C 1000.9 hPa Calm   3.2 km/h 90 % 0.5 mm
18:22 5.4 °C 3.9 °C 1000.9 hPa Calm   3.2 km/h 90 % 0.5 mm
18:27 5.3 °C 3.8 °C 1000.9 hPa Calm   3.2 km/h 90 % 0.5 mm
18:32 5.2 °C 3.9 °C 1000.9 hPa Calm   3.2 km/h 91 % 0.5 mm
18:37 5.1 °C 3.8 °C 1000.9 hPa Calm   1.6 km/h 91 % 0.5 mm
18:42 5.0 °C 3.8 °C 1001.2 hPa Calm   1.6 km/h 92 % 0.5 mm
18:52 4.8 °C 3.8 °C 1001.2 hPa Calm     93 % 0.3 mm
18:57 4.8 °C 3.8 °C 1001.2 hPa Calm     93 % 0.3 mm
19:02 4.8 °C 3.9 °C 1001.6 hPa Calm     94 % 0.0 mm
19:07 4.8 °C 3.9 °C 1001.6 hPa NNW 1.6 km/h   94 % 0.0 mm
19:12 4.9 °C 4.0 °C 1001.6 hPa Calm   3.2 km/h 94 % 0.0 mm
19:17 4.9 °C 4.2 °C 1001.6 hPa Calm   3.2 km/h 95 % 0.0 mm
19:22 5.0 °C 4.3 °C 1001.9 hPa Calm   3.2 km/h 95 % 0.0 mm
19:32 5.2 °C 4.3 °C 1001.9 hPa SW 1.6 km/h 6.4 km/h 94 % 0.0 mm
19:37 5.3 °C 4.4 °C 1002.3 hPa SSW 1.6 km/h 6.4 km/h 94 % 0.0 mm
19:42 5.3 °C 4.4 °C 1002.3 hPa SW 3.2 km/h 6.4 km/h 94 % 0.0 mm
19:47 5.3 °C 4.4 °C 1002.3 hPa WSW 3.2 km/h 6.4 km/h 94 % 0.0 mm
19:52 5.2 °C 4.3 °C 1002.3 hPa SW 3.2 km/h 6.4 km/h 94 % 0.0 mm
20:02 5.2 °C 4.3 °C 1002.3 hPa WSW 3.2 km/h 4.8 km/h 94 % 0.0 mm
20:07 5.2 °C 4.3 °C 1002.3 hPa SW 1.6 km/h 4.8 km/h 94 % 0.0 mm
20:12 5.2 °C 4.2 °C 1002.6 hPa SW 3.2 km/h 4.8 km/h 93 % 0.0 mm
20:17 5.2 °C 4.2 °C 1002.6 hPa SW 1.6 km/h 6.4 km/h 93 % 0.0 mm
20:22 5.2 °C 4.2 °C 1002.6 hPa SW 3.2 km/h 6.4 km/h 93 % 0.0 mm
20:27 5.2 °C 4.0 °C 1002.6 hPa SW 1.6 km/h 6.4 km/h 92 % 0.0 mm
20:32 5.2 °C 4.2 °C 1002.9 hPa SW 3.2 km/h 6.4 km/h 93 % 0.0 mm
20:37 5.2 °C 4.0 °C 1002.9 hPa SW 1.6 km/h 8.0 km/h 92 % 0.0 mm
20:42 5.2 °C 4.0 °C 1002.9 hPa SW 4.8 km/h 8.0 km/h 92 % 0.0 mm
20:52 5.1 °C 3.9 °C 1002.9 hPa WSW 3.2 km/h 8.0 km/h 92 % 0.0 mm
20:57 5.1 °C 3.9 °C 1002.9 hPa SW 3.2 km/h 11.3 km/h 92 % 0.0 mm
21:02 5.1 °C 3.8 °C 1002.9 hPa SSW 3.2 km/h 11.3 km/h 91 % 0.0 mm
21:07 5.1 °C 3.8 °C 1002.9 hPa WSW 6.4 km/h 11.3 km/h 91 % 0.0 mm
21:12 5.1 °C 3.8 °C 1002.9 hPa SSW 3.2 km/h 9.7 km/h 91 % 0.0 mm
21:17 5.1 °C 3.8 °C 1003.3 hPa SW 1.6 km/h 9.7 km/h 91 % 0.0 mm
21:22 5.1 °C 3.9 °C 1003.3 hPa SSW 1.6 km/h 9.7 km/h 92 % 0.0 mm
21:27 5.0 °C 3.8 °C 1003.3 hPa West 3.2 km/h 9.7 km/h 92 % 0.0 mm
21:32 4.9 °C 3.7 °C 1003.6 hPa SSW 3.2 km/h 9.7 km/h 92 % 0.0 mm
21:37 4.9 °C 3.7 °C 1003.6 hPa WSW 3.2 km/h 9.7 km/h 92 % 0.0 mm
21:42 4.9 °C 3.9 °C 1003.6 hPa SW 6.4 km/h 8.0 km/h 93 % 0.0 mm
21:47 4.8 °C 3.8 °C 1003.6 hPa WSW 3.2 km/h 8.0 km/h 93 % 0.0 mm
21:52 4.8 °C 3.8 °C 1003.9 hPa SW 4.8 km/h 8.0 km/h 93 % 0.0 mm
21:57 4.8 °C 3.8 °C 1003.9 hPa SSW 4.8 km/h 6.4 km/h 93 % 0.0 mm
22:02 4.8 °C 3.8 °C 1003.9 hPa SSW 1.6 km/h 6.4 km/h 93 % 0.0 mm
22:07 4.8 °C 3.8 °C 1003.9 hPa SW 1.6 km/h 6.4 km/h 93 % 0.0 mm
22:12 4.8 °C 3.8 °C 1003.9 hPa SW 3.2 km/h 6.4 km/h 93 % 0.0 mm
22:17 4.7 °C 3.7 °C 1003.9 hPa WSW 1.6 km/h 6.4 km/h 93 % 0.0 mm
22:27 4.7 °C 3.8 °C 1003.9 hPa SW 3.2 km/h 4.8 km/h 94 % 0.0 mm
22:32 4.6 °C 3.7 °C 1004.3 hPa SW 1.6 km/h 4.8 km/h 94 % 0.0 mm
22:37 4.6 °C 3.7 °C 1004.3 hPa WSW 1.6 km/h 4.8 km/h 94 % 0.0 mm
22:42 4.6 °C 3.7 °C 1004.3 hPa SW 1.6 km/h 6.4 km/h 94 % 0.0 mm
22:52 4.5 °C 3.6 °C 1004.3 hPa Calm   4.8 km/h 94 % 0.0 mm
22:57 4.5 °C 3.6 °C 1004.3 hPa SW 1.6 km/h 4.8 km/h 94 % 0.0 mm
23:02 4.5 °C 3.6 °C 1004.3 hPa WSW 1.6 km/h 4.8 km/h 94 % 0.0 mm
23:07 4.5 °C 3.6 °C 1004.3 hPa Calm   4.8 km/h 94 % 0.0 mm
23:12 4.5 °C 3.6 °C 1004.3 hPa WSW 1.6 km/h 4.8 km/h 94 % 0.0 mm
23:17 4.5 °C 3.6 °C 1004.6 hPa SW 1.6 km/h 4.8 km/h 94 % 0.0 mm
23:22 4.4 °C 3.5 °C 1004.6 hPa Calm   3.2 km/h 94 % 0.0 mm
23:27 4.4 °C 3.5 °C 1004.6 hPa Calm   3.2 km/h 94 % 0.0 mm
23:32 4.4 °C 3.5 °C 1004.6 hPa WSW 3.2 km/h 6.4 km/h 94 % 0.0 mm
23:37 4.3 °C 3.4 °C 1004.6 hPa Calm   6.4 km/h 94 % 0.0 mm
23:42 4.2 °C 3.3 °C 1004.6 hPa Calm   4.8 km/h 94 % 0.0 mm
23:52 3.9 °C 3.0 °C 1004.6 hPa SW 3.2 km/h 3.2 km/h 94 % 0.0 mm
23:57 3.8 °C 3.1 °C 1004.6 hPa SW 1.6 km/h 3.2 km/h 95 % 0.0 mm
Meteo18
Compliments of Weather Underground - 4 mb

Script developed by  Jim McMurry - jmcmurry@mwt.net Adapted for the template by  Wim van der Kuil - Leuven-Template.eu

You find our weather info also at:

European Weather Network

Weather Underground

Equipment we use:

Weather-station
Davis Vue

Weather-program
Meteohub

Weather-server
Raspberry PI 2 B+

Provider
1 and 1

Davis Vue

Meteohub

Raspberry PI 2 B+

1 and 1